createdAt,value
2019-04-03T00:02:11.983Z,6.87
2019-04-03T00:07:18.881Z,8.10
2019-04-03T00:12:27.213Z,6.37
2019-04-03T00:17:34.586Z,5.87
2019-04-03T00:22:41.986Z,8.83
2019-04-03T00:32:53.175Z,6.87
2019-04-03T00:37:59.442Z,4.65
2019-04-03T00:43:06.261Z,7.87
2019-04-03T00:48:13.095Z,6.00
2019-04-03T00:53:20.355Z,7.30
2019-04-03T00:58:39.526Z,6.78
2019-04-03T01:03:46.741Z,6.72
2019-04-03T01:08:54.250Z,6.37
2019-04-03T01:14:01.633Z,5.37
2019-04-03T01:19:09.061Z,5.53
2019-04-03T01:24:15.159Z,4.12
2019-04-03T01:29:20.978Z,4.62
2019-04-03T01:34:27.122Z,5.12
2019-04-03T01:39:33.073Z,5.87
2019-04-03T01:44:39.208Z,6.30
2019-04-03T01:49:46.432Z,4.58
2019-04-03T01:54:52.695Z,6.97
2019-04-03T01:59:59.658Z,5.37
2019-04-03T02:05:06.590Z,4.72
2019-04-03T02:10:18.288Z,5.45
2019-04-03T02:15:24.566Z,5.33
2019-04-03T02:20:30.939Z,4.87
2019-04-03T02:25:38.152Z,5.17
2019-04-03T02:30:46.879Z,4.45
2019-04-03T02:35:54.918Z,7.72
2019-04-03T02:41:03.996Z,5.83
2019-04-03T02:46:11.367Z,5.45
2019-04-03T02:51:19.714Z,6.80
2019-04-03T02:56:27.649Z,5.80
2019-04-03T03:01:34.031Z,6.10
2019-04-03T03:06:40.330Z,5.22
2019-04-03T03:11:47.301Z,6.28
2019-04-03T03:16:53.771Z,5.15
2019-04-03T03:22:21.289Z,6.20
2019-04-03T03:27:29.112Z,8.50
2019-04-03T03:32:37.491Z,4.97
2019-04-03T03:37:45.027Z,5.87
2019-04-03T03:42:52.453Z,6.78
2019-04-03T03:48:00.114Z,7.40
2019-04-03T03:53:10.170Z,6.10
2019-04-03T03:58:35.581Z,7.65
2019-04-03T04:03:42.551Z,3.98
2019-04-03T04:08:50.980Z,3.08
2019-04-03T04:13:58.368Z,5.83
2019-04-03T04:19:06.700Z,4.67
2019-04-03T04:24:14.367Z,3.12
2019-04-03T04:29:21.863Z,3.92
2019-04-03T04:34:28.904Z,4.97
2019-04-03T04:39:36.886Z,7.22
2019-04-03T04:44:44.831Z,3.42
2019-04-03T04:49:53.094Z,5.72
2019-04-03T04:55:01.367Z,3.90
2019-04-03T05:00:07.769Z,7.35
2019-04-03T05:05:15.037Z,4.60
2019-04-03T05:10:22.326Z,4.47
2019-04-03T05:15:31.563Z,3.67
2019-04-03T05:20:37.685Z,5.20
2019-04-03T05:25:45.449Z,5.53
2019-04-03T05:30:52.865Z,5.55
2019-04-03T05:36:00.400Z,5.25
2019-04-03T05:41:07.215Z,3.77
2019-04-03T05:46:22.762Z,4.23
2019-04-03T05:51:30.765Z,3.55
2019-04-03T05:56:37.130Z,4.70
2019-04-03T06:01:46.748Z,4.37
2019-04-03T06:07:26.504Z,5.17
2019-04-03T06:12:36.689Z,5.87
2019-04-03T06:18:02.829Z,5.25
2019-04-03T06:23:09.855Z,5.63
2019-04-03T06:28:16.918Z,7.05
2019-04-03T06:33:24.180Z,4.78
2019-04-03T06:38:31.113Z,5.28
2019-04-03T06:43:37.615Z,4.20
2019-04-03T06:48:45.050Z,8.13
2019-04-03T06:53:51.994Z,4.78
2019-04-03T06:58:58.951Z,3.72
2019-04-03T07:04:30.418Z,2.80
2019-04-03T07:09:38.684Z,3.77
2019-04-03T07:14:46.239Z,3.87
2019-04-03T07:19:53.460Z,4.70
2019-04-03T07:25:02.740Z,4.60
2019-04-03T07:30:09.379Z,3.42
2019-04-03T07:35:16.581Z,3.10
2019-04-03T07:40:22.587Z,7.40
2019-04-03T07:45:28.280Z,3.20
2019-04-03T07:50:36.511Z,3.92
2019-04-03T07:55:44.193Z,3.17
2019-04-03T08:00:50.699Z,7.03
2019-04-03T08:05:56.875Z,4.90
2019-04-03T08:11:03.359Z,6.42
2019-04-03T08:23:05.644Z,3.40
2019-04-03T08:28:14.545Z,5.12
2019-04-03T08:33:26.185Z,3.22
2019-04-03T08:39:13.718Z,2.45
2019-04-03T08:44:21.827Z,2.45
2019-04-03T08:49:28.758Z,2.58
2019-04-03T08:54:41.262Z,3.92
2019-04-03T08:59:47.623Z,5.72
2019-04-03T09:04:54.966Z,4.00
2019-04-03T09:10:02.144Z,3.70
2019-04-03T09:15:09.368Z,3.80
2019-04-03T09:20:15.620Z,2.42
2019-04-03T09:25:21.471Z,4.55
2019-04-03T09:30:27.683Z,1.92
2019-04-03T09:35:34.766Z,4.17
2019-04-03T09:40:42.100Z,3.60
2019-04-03T09:45:49.075Z,3.58
2019-04-03T09:50:56.624Z,2.87
2019-04-03T09:56:03.717Z,3.87
2019-04-03T10:01:13.800Z,3.52
2019-04-03T10:06:20.479Z,6.28
2019-04-03T10:11:28.006Z,2.20
2019-04-03T10:17:51.256Z,4.30
2019-04-03T10:29:40.962Z,4.95
2019-04-03T10:34:48.973Z,3.83
2019-04-03T10:40:04.955Z,3.02
2019-04-03T10:45:13.810Z,2.50
2019-04-03T10:50:21.008Z,4.58
2019-04-03T10:55:29.406Z,2.98
2019-04-03T11:00:37.542Z,5.50
2019-04-03T11:05:44.788Z,4.45
2019-04-03T11:10:50.721Z,4.37
2019-04-03T11:15:59.000Z,3.20
2019-04-03T11:21:05.264Z,5.95
2019-04-03T11:26:12.809Z,4.87
2019-04-03T11:31:27.460Z,4.78
2019-04-03T11:36:30.694Z,5.03
2019-04-03T11:41:38.385Z,5.67
2019-04-03T12:14:54.273Z,3.45
2019-04-03T12:55:29.817Z,7.75
2019-04-03T13:01:18.063Z,4.33
2019-04-03T13:19:35.923Z,5.97
2019-04-03T13:38:02.107Z,7.08
2019-04-03T13:57:27.383Z,5.62
2019-04-03T14:02:38.002Z,4.05
2019-04-03T14:28:59.020Z,3.77
2019-04-03T15:15:50.282Z,2.95
2019-04-03T15:21:03.245Z,1.75
2019-04-03T15:32:54.249Z,2.30
2019-04-03T15:38:01.258Z,4.75
2019-04-03T15:44:13.006Z,0.60
2019-04-03T15:49:20.047Z,2.40
2019-04-03T16:00:47.555Z,0.40
2019-04-03T16:06:02.753Z,1.15
2019-04-03T16:26:56.114Z,0.40
2019-04-03T16:39:10.433Z,0.73
2019-04-03T16:45:47.690Z,1.12
2019-04-03T16:52:36.525Z,2.00
2019-04-03T17:18:20.831Z,0.43
2019-04-03T17:23:27.873Z,0.50
2019-04-03T17:28:35.350Z,0.23
2019-04-03T17:33:42.539Z,0.00
2019-04-03T17:38:48.792Z,0.20
2019-04-03T17:43:55.879Z,0.60
2019-04-03T17:49:03.917Z,0.23
2019-04-03T17:54:10.642Z,0.10
2019-04-03T17:59:18.922Z,7.50
2019-04-03T18:04:26.407Z,4.23
2019-04-03T18:09:36.197Z,3.37
2019-04-03T18:14:47.777Z,0.43
2019-04-03T18:20:03.012Z,0.03
2019-04-03T18:25:12.411Z,0.43
2019-04-03T18:30:42.112Z,0.20
2019-04-03T18:35:49.589Z,1.20
2019-04-03T18:40:59.134Z,1.43
2019-04-03T18:46:06.409Z,3.10
2019-04-03T18:51:15.022Z,0.50
2019-04-03T18:56:22.597Z,1.00
2019-04-03T19:01:32.312Z,0.33
2019-04-03T19:06:39.082Z,0.73
2019-04-03T19:11:45.268Z,0.40
2019-04-03T19:16:52.734Z,0.40
2019-04-03T19:21:59.341Z,0.27
2019-04-03T19:27:06.036Z,0.20
2019-04-03T19:32:12.809Z,0.77
2019-04-03T19:37:19.087Z,0.40
2019-04-03T19:42:24.869Z,0.00
2019-04-03T19:47:30.811Z,0.20
2019-04-03T19:52:37.416Z,0.10
2019-04-03T20:05:43.670Z,0.23
2019-04-03T20:31:55.450Z,0.20
2019-04-03T20:37:02.915Z,0.40
2019-04-03T20:49:03.104Z,0.20
2019-04-03T20:55:20.476Z,0.20
2019-04-03T21:00:33.245Z,0.40
2019-04-03T21:05:41.365Z,2.23
2019-04-03T21:17:19.027Z,0.40
2019-04-03T21:24:16.323Z,0.70
2019-04-03T21:29:33.923Z,0.50
2019-04-03T21:34:42.792Z,0.50
2019-04-03T21:39:49.761Z,1.20
2019-04-03T21:45:02.231Z,0.90
2019-04-03T21:50:09.937Z,0.53
2019-04-03T21:55:16.402Z,0.70
2019-04-03T22:00:50.975Z,0.50
2019-04-03T22:06:02.441Z,0.60
2019-04-03T22:11:10.480Z,0.50
2019-04-03T22:16:20.842Z,0.50
2019-04-03T22:27:57.288Z,0.50
2019-04-03T22:33:09.034Z,0.30
2019-04-03T22:38:15.848Z,0.40
2019-04-03T22:43:22.161Z,0.47
2019-04-03T22:56:02.420Z,0.60
2019-04-03T23:01:08.281Z,0.77
2019-04-03T23:06:16.848Z,1.10
2019-04-03T23:12:03.631Z,0.50
2019-04-03T23:17:11.930Z,0.70
2019-04-03T23:22:20.548Z,0.50
2019-04-03T23:27:27.971Z,0.40
2019-04-03T23:32:35.490Z,0.50
2019-04-03T23:37:50.388Z,0.57
2019-04-03T23:42:58.882Z,0.50
2019-04-03T23:48:17.576Z,0.40
2019-04-03T23:53:24.657Z,0.70
2019-04-03T23:58:31.085Z,1.00
